createdAt,value
2018-12-11T00:02:15.897Z,11.00
2018-12-11T00:04:48.315Z,15.67
2018-12-11T00:07:20.436Z,7.80
2018-12-11T00:09:53.202Z,10.03
2018-12-11T00:12:25.180Z,8.10
2018-12-11T00:14:58.073Z,12.47
2018-12-11T00:17:30.195Z,11.90
2018-12-11T00:20:03.110Z,16.87
2018-12-11T00:22:35.973Z,13.63
2018-12-11T00:25:08.083Z,9.63
2018-12-11T00:27:40.713Z,10.43
2018-12-11T00:30:13.260Z,12.87
2018-12-11T00:32:46.008Z,10.00
2018-12-11T00:35:18.278Z,13.43
2018-12-11T00:37:51.172Z,12.00
2018-12-11T00:40:23.131Z,10.80
2018-12-11T00:42:55.420Z,11.63
2018-12-11T00:45:26.174Z,11.37
2018-12-11T00:47:58.473Z,10.17
2018-12-11T00:50:30.319Z,7.90
2018-12-11T00:53:02.464Z,13.90
2018-12-11T00:55:36.876Z,14.40
2018-12-11T00:58:09.645Z,10.63
2018-12-11T01:00:42.089Z,10.93
2018-12-11T01:03:15.825Z,11.03
2018-12-11T01:05:48.103Z,13.37
2018-12-11T01:08:19.947Z,17.17
2018-12-11T01:10:52.650Z,7.27
2018-12-11T01:13:25.438Z,13.10
2018-12-11T01:15:58.649Z,14.73
2018-12-11T01:18:30.613Z,12.87
2018-12-11T01:21:03.063Z,12.07
2018-12-11T01:23:35.968Z,10.33
2018-12-11T01:26:09.214Z,11.57
2018-12-11T01:28:41.853Z,14.90
2018-12-11T01:31:14.700Z,12.57
2018-12-11T01:33:47.012Z,12.43
2018-12-11T01:36:18.221Z,8.60
2018-12-11T01:38:50.961Z,11.57
2018-12-11T01:41:23.021Z,11.90
2018-12-11T01:43:55.847Z,10.70
2018-12-11T01:46:27.988Z,11.07
2018-12-11T01:49:00.299Z,11.77
2018-12-11T01:51:33.268Z,9.77
2018-12-11T01:54:06.171Z,11.70
2018-12-11T01:56:38.386Z,9.30
2018-12-11T01:59:11.334Z,14.13
2018-12-11T02:01:44.292Z,8.97
2018-12-11T02:04:16.941Z,13.23
2018-12-11T02:06:51.417Z,13.33
2018-12-11T02:09:24.936Z,12.93
2018-12-11T02:11:56.977Z,9.70
2018-12-11T02:14:29.243Z,12.53
2018-12-11T02:17:00.147Z,15.00
2018-12-11T02:19:32.181Z,10.80
2018-12-11T02:22:04.090Z,10.43
2018-12-11T02:24:37.216Z,9.07
2018-12-11T02:27:09.621Z,7.60
2018-12-11T02:29:41.828Z,13.30
2018-12-11T02:32:13.782Z,10.60
2018-12-11T02:34:45.942Z,11.70
2018-12-11T02:37:18.163Z,10.33
2018-12-11T02:39:50.910Z,12.83
2018-12-11T02:42:22.936Z,11.53
2018-12-11T02:44:54.928Z,10.43
2018-12-11T02:47:26.820Z,12.93
2018-12-11T02:49:58.785Z,13.10
2018-12-11T02:52:31.088Z,10.33
2018-12-11T02:55:04.316Z,13.50
2018-12-11T02:57:37.051Z,15.67
2018-12-11T03:00:09.876Z,14.97
2018-12-11T03:02:43.211Z,9.83
2018-12-11T03:05:15.785Z,16.53
2018-12-11T03:07:48.709Z,17.03
2018-12-11T03:10:21.385Z,15.63
2018-12-11T03:12:53.501Z,12.07
2018-12-11T03:15:23.794Z,10.50
2018-12-11T03:17:55.908Z,10.60
2018-12-11T03:20:28.173Z,18.33
2018-12-11T03:23:00.439Z,11.67
2018-12-11T03:25:32.541Z,17.43
2018-12-11T03:28:04.404Z,9.87
2018-12-11T03:30:36.549Z,15.00
2018-12-11T03:33:12.012Z,13.33
2018-12-11T03:35:44.809Z,13.00
2018-12-11T03:38:17.692Z,17.67
2018-12-11T03:40:49.885Z,10.37
2018-12-11T03:43:22.808Z,11.37
2018-12-11T03:45:54.704Z,18.27
2018-12-11T03:48:26.617Z,12.77
2018-12-11T03:50:59.181Z,17.47
2018-12-11T03:53:31.872Z,10.53
2018-12-11T03:56:04.316Z,9.90
2018-12-11T03:58:37.060Z,16.23
2018-12-11T04:01:09.064Z,14.27
2018-12-11T04:03:40.968Z,11.40
2018-12-11T04:06:13.112Z,10.93
2018-12-11T04:08:45.958Z,12.33
2018-12-11T04:11:17.939Z,10.33
2018-12-11T04:16:19.531Z,11.53
2018-12-11T04:18:51.862Z,11.33
2018-12-11T04:21:23.707Z,11.47
2018-12-11T04:23:55.874Z,14.20
2018-12-11T04:26:27.847Z,6.70
2018-12-11T04:28:59.913Z,11.10
2018-12-11T04:31:32.055Z,13.40
2018-12-11T04:34:04.659Z,10.93
2018-12-11T04:36:35.308Z,12.67
2018-12-11T04:39:07.760Z,16.87
2018-12-11T04:41:40.266Z,13.67
2018-12-11T04:44:12.333Z,9.67
2018-12-11T04:46:44.501Z,10.07
2018-12-11T04:49:17.149Z,7.90
2018-12-11T04:51:49.112Z,12.37
2018-12-11T04:54:22.070Z,11.13
2018-12-11T04:56:52.755Z,12.73
2018-12-11T04:59:25.232Z,10.40
2018-12-11T05:01:57.864Z,17.10
2018-12-11T05:04:29.823Z,16.50
2018-12-11T05:07:01.831Z,13.37
2018-12-11T05:09:34.633Z,22.00
2018-12-11T05:12:06.581Z,14.47
2018-12-11T05:14:38.868Z,11.50
2018-12-11T05:17:10.676Z,13.37
2018-12-11T05:19:42.964Z,13.97
2018-12-11T05:22:14.955Z,11.33
2018-12-11T05:24:47.326Z,11.73
2018-12-11T05:27:19.404Z,9.63
2018-12-11T05:29:51.381Z,10.63
2018-12-11T05:32:23.413Z,11.50
2018-12-11T05:34:55.607Z,12.33
2018-12-11T05:37:27.522Z,15.63
2018-12-11T05:39:59.463Z,14.30
2018-12-11T05:42:33.220Z,12.40
2018-12-11T05:45:03.987Z,12.20
2018-12-11T05:47:36.382Z,11.90
2018-12-11T05:50:08.408Z,9.77
2018-12-11T05:52:40.488Z,8.50
2018-12-11T05:55:12.436Z,12.57
2018-12-11T05:57:45.324Z,13.17
2018-12-11T06:00:18.167Z,7.80
2018-12-11T06:02:50.259Z,9.40
2018-12-11T06:05:22.177Z,13.43
2018-12-11T06:07:54.247Z,8.63
2018-12-11T06:10:27.309Z,10.50
2018-12-11T06:12:59.377Z,7.93
2018-12-11T06:15:33.824Z,14.30
2018-12-11T06:18:04.705Z,8.60
2018-12-11T06:20:37.377Z,12.03
2018-12-11T06:23:09.487Z,10.73
2018-12-11T06:25:41.537Z,12.00
2018-12-11T06:28:13.656Z,9.17
2018-12-11T06:30:45.549Z,10.27
2018-12-11T06:33:17.845Z,13.10
2018-12-11T06:35:49.785Z,12.77
2018-12-11T06:38:21.773Z,14.83
2018-12-11T06:40:54.138Z,11.87
2018-12-11T06:43:26.834Z,9.73
2018-12-11T06:45:58.935Z,12.60
2018-12-11T06:48:30.987Z,13.03
2018-12-11T06:51:03.180Z,11.83
2018-12-11T06:53:35.915Z,13.17
2018-12-11T06:56:06.849Z,11.20
2018-12-11T06:58:40.845Z,14.77
2018-12-11T07:01:13.865Z,12.83
2018-12-11T07:03:45.853Z,12.30
2018-12-11T07:06:15.743Z,16.40
2018-12-11T07:08:47.854Z,10.60
2018-12-11T07:11:20.037Z,15.57
2018-12-11T07:13:57.407Z,8.23
2018-12-11T07:16:33.472Z,16.07
2018-12-11T07:19:09.306Z,12.70
2018-12-11T07:21:53.345Z,14.87
2018-12-11T07:24:26.492Z,9.30
2018-12-11T07:26:58.511Z,12.20
2018-12-11T07:29:29.391Z,9.00
2018-12-11T07:32:01.725Z,11.37
2018-12-11T07:34:33.797Z,5.60
2018-12-11T07:37:08.172Z,10.13
2018-12-11T07:39:40.816Z,12.60
2018-12-11T07:42:13.533Z,12.10
2018-12-11T07:44:44.250Z,9.93
2018-12-11T07:47:16.745Z,11.53
2018-12-11T07:49:49.478Z,11.87
2018-12-11T07:52:21.787Z,11.30
2018-12-11T07:54:52.630Z,12.17
2018-12-11T07:57:34.613Z,10.17
2018-12-11T08:00:07.553Z,11.93
2018-12-11T08:02:39.842Z,12.80
2018-12-11T08:05:10.008Z,10.57
2018-12-11T08:07:42.270Z,8.63
2018-12-11T08:10:14.979Z,11.83
2018-12-11T08:12:49.150Z,13.30
2018-12-11T08:15:21.924Z,13.97
2018-12-11T08:17:54.691Z,12.60
2018-12-11T08:20:28.936Z,7.70
2018-12-11T08:23:01.746Z,8.57
2018-12-11T08:25:33.736Z,8.20
2018-12-11T08:28:08.044Z,9.40
2018-12-11T08:30:45.644Z,8.67
2018-12-11T08:33:20.037Z,8.90
2018-12-11T08:35:50.715Z,11.37
2018-12-11T08:38:22.946Z,12.37
2018-12-11T08:40:54.952Z,10.70
2018-12-11T08:43:26.978Z,17.47
2018-12-11T08:45:59.032Z,14.30
2018-12-11T08:48:31.201Z,14.03
2018-12-11T08:51:03.387Z,14.43
2018-12-11T08:53:35.359Z,16.30
2018-12-11T08:56:07.563Z,13.20
2018-12-11T08:58:40.436Z,16.20
2018-12-11T09:01:12.679Z,11.07
2018-12-11T09:03:44.937Z,11.60
2018-12-11T09:06:17.126Z,9.00
2018-12-11T09:08:49.325Z,19.03
2018-12-11T09:11:22.405Z,8.70
2018-12-11T09:13:53.389Z,12.97
2018-12-11T09:16:24.259Z,9.03
2018-12-11T09:18:56.171Z,8.40
2018-12-11T09:23:57.089Z,9.63
2018-12-11T09:26:28.371Z,15.07
2018-12-11T09:29:01.189Z,11.83
2018-12-11T09:31:34.067Z,14.87
2018-12-11T09:34:06.134Z,11.23
2018-12-11T09:36:38.142Z,9.77
2018-12-11T09:39:10.985Z,8.23
2018-12-11T09:41:43.631Z,12.77
2018-12-11T09:44:20.676Z,11.53
2018-12-11T09:46:52.776Z,8.87
2018-12-11T09:49:24.670Z,10.40
2018-12-11T09:52:03.048Z,10.13
2018-12-11T09:54:35.703Z,11.27
2018-12-11T09:57:07.857Z,10.27
2018-12-11T09:59:42.950Z,8.33
2018-12-11T10:02:15.538Z,12.97
2018-12-11T10:04:48.205Z,8.13
2018-12-11T10:07:20.844Z,9.77
2018-12-11T10:09:50.970Z,8.47
2018-12-11T10:12:23.224Z,12.17
2018-12-11T10:14:55.575Z,9.37
2018-12-11T10:17:32.504Z,11.53
2018-12-11T10:20:05.852Z,6.80
2018-12-11T10:30:07.531Z,8.97
2018-12-11T10:32:39.605Z,10.57
2018-12-11T10:35:11.677Z,11.13
2018-12-11T10:37:43.751Z,7.37
2018-12-11T10:40:16.602Z,10.23
2018-12-11T10:42:48.621Z,9.17
2018-12-11T10:45:20.818Z,11.33
2018-12-11T10:47:52.864Z,10.33
2018-12-11T10:50:24.919Z,7.90
2018-12-11T10:52:57.147Z,8.60
2018-12-11T10:55:29.280Z,9.97
2018-12-11T10:58:02.202Z,10.67
2018-12-11T11:00:39.616Z,12.43
2018-12-11T11:03:12.103Z,11.97
2018-12-11T11:05:44.255Z,13.40
2018-12-11T11:08:17.359Z,11.90
2018-12-11T11:10:49.921Z,14.97
2018-12-11T11:13:22.788Z,9.80
2018-12-11T11:15:55.441Z,7.10
2018-12-11T11:18:27.393Z,10.93
2018-12-11T11:20:59.428Z,11.20
2018-12-11T11:23:31.594Z,13.60
2018-12-11T11:26:03.708Z,11.13
2018-12-11T11:28:36.648Z,12.03
2018-12-11T11:31:08.831Z,7.03
2018-12-11T11:33:56.415Z,8.60
2018-12-11T11:36:25.390Z,10.30
2018-12-11T11:38:57.932Z,14.80
2018-12-11T11:41:29.897Z,9.73
2018-12-11T11:44:02.311Z,8.17
2018-12-11T11:46:33.808Z,10.43
2018-12-11T11:49:04.032Z,9.50
2018-12-11T11:51:36.313Z,10.53
2018-12-11T11:54:09.359Z,11.47
2018-12-11T11:56:42.176Z,9.03
2018-12-11T11:59:15.196Z,11.20
2018-12-11T12:01:46.089Z,9.63
2018-12-11T12:04:18.268Z,8.57
2018-12-11T12:06:50.382Z,11.27
2018-12-11T12:09:23.492Z,8.97
2018-12-11T12:11:56.123Z,8.17
2018-12-11T12:14:28.388Z,8.13
2018-12-11T12:17:10.527Z,7.43
2018-12-11T12:19:41.066Z,12.80
2018-12-11T12:22:13.938Z,10.43
2018-12-11T12:24:46.597Z,11.53
2018-12-11T12:27:17.567Z,9.93
2018-12-11T12:34:47.895Z,6.53
2018-12-11T12:37:19.939Z,8.93
2018-12-11T12:39:54.167Z,6.17
2018-12-11T12:42:26.739Z,6.47
2018-12-11T12:44:58.646Z,7.00
2018-12-11T12:47:32.931Z,8.07
2018-12-11T12:50:05.915Z,8.73
2018-12-11T12:52:35.722Z,7.27
2018-12-11T12:55:08.134Z,10.23
2018-12-11T12:57:41.710Z,8.57
2018-12-11T13:00:12.139Z,7.30
2018-12-11T13:02:49.898Z,8.67
2018-12-11T13:05:19.074Z,8.57
2018-12-11T13:07:51.134Z,9.53
2018-12-11T13:10:21.215Z,8.97
2018-12-11T13:12:54.146Z,7.87
2018-12-11T13:15:26.310Z,6.93
2018-12-11T13:17:57.222Z,12.63
2018-12-11T13:20:28.437Z,11.97
2018-12-11T13:22:58.987Z,8.67
2018-12-11T13:25:30.968Z,10.23
2018-12-11T13:28:09.364Z,12.70
2018-12-11T13:30:41.339Z,12.13
2018-12-11T13:33:15.864Z,13.40
2018-12-11T13:38:18.378Z,11.20
2018-12-11T13:40:51.776Z,9.37
2018-12-11T13:43:22.163Z,8.93
2018-12-11T13:45:53.028Z,11.30
2018-12-11T13:48:26.045Z,8.43
2018-12-11T13:50:58.981Z,10.03
2018-12-11T13:53:29.837Z,8.53
2018-12-11T13:56:02.885Z,8.90
2018-12-11T13:58:33.601Z,15.37
2018-12-11T14:01:05.836Z,11.33
2018-12-11T14:03:37.799Z,10.50
2018-12-11T14:06:09.764Z,15.10
2018-12-11T14:08:41.729Z,14.37
2018-12-11T14:11:13.714Z,12.77
2018-12-11T14:13:45.864Z,18.30
2018-12-11T14:16:18.009Z,8.97
2018-12-11T14:18:50.916Z,9.13
2018-12-11T14:21:23.067Z,12.37
2018-12-11T14:23:55.804Z,11.83
2018-12-11T14:26:27.387Z,13.70
2018-12-11T14:29:00.978Z,12.10
2018-12-11T14:31:31.767Z,10.83
2018-12-11T14:34:04.003Z,13.13
2018-12-11T14:36:34.683Z,9.40
2018-12-11T14:39:07.629Z,8.13
2018-12-11T14:41:37.989Z,13.33
2018-12-11T14:44:08.936Z,18.37
2018-12-11T14:46:40.869Z,10.37
2018-12-11T14:49:11.696Z,15.67
2018-12-11T14:51:43.938Z,12.87
2018-12-11T14:54:19.129Z,8.80
2018-12-11T14:56:51.478Z,14.73
2018-12-11T14:59:23.845Z,8.97
2018-12-11T15:01:55.793Z,8.23
2018-12-11T15:04:28.625Z,11.63
2018-12-11T15:07:00.711Z,11.70
2018-12-11T15:09:38.160Z,12.30
2018-12-11T15:12:13.399Z,10.43
2018-12-11T15:14:45.819Z,11.80
2018-12-11T15:17:18.178Z,15.93
2018-12-11T15:19:50.867Z,9.73
2018-12-11T15:22:23.283Z,7.63
2018-12-11T15:24:56.245Z,13.87
2018-12-11T15:27:29.246Z,12.27
2018-12-11T15:30:02.426Z,11.40
2018-12-11T15:32:37.098Z,10.90
2018-12-11T15:35:09.330Z,11.80
2018-12-11T15:37:41.380Z,9.03
2018-12-11T15:40:13.559Z,8.77
2018-12-11T15:42:44.293Z,9.80
2018-12-11T15:45:16.326Z,11.23
2018-12-11T15:47:48.568Z,9.50
2018-12-11T15:50:21.519Z,10.77
2018-12-11T15:52:54.495Z,11.93
2018-12-11T15:55:27.304Z,14.60
2018-12-11T15:57:59.241Z,9.67
2018-12-11T16:00:31.437Z,11.03
2018-12-11T16:03:04.238Z,12.47
2018-12-11T16:05:36.518Z,11.47
2018-12-11T16:08:09.259Z,11.63
2018-12-11T16:10:41.290Z,14.60
2018-12-11T16:13:13.394Z,14.63
2018-12-11T16:15:45.346Z,14.10
2018-12-11T16:18:17.607Z,10.80
2018-12-11T16:20:49.595Z,12.13
2018-12-11T16:23:21.930Z,10.47
2018-12-11T16:25:55.269Z,12.27
2018-12-11T16:28:28.971Z,13.90
2018-12-11T16:31:02.011Z,9.90
2018-12-11T16:33:34.848Z,9.60
2018-12-11T16:36:07.233Z,14.13
2018-12-11T16:38:37.863Z,10.77
2018-12-11T16:41:10.519Z,16.40
2018-12-11T16:43:43.299Z,11.33
2018-12-11T16:46:22.891Z,15.00
2018-12-11T16:48:55.512Z,8.30
2018-12-11T16:51:28.404Z,12.87
2018-12-11T16:54:00.357Z,12.33
2018-12-11T16:56:32.595Z,15.80
2018-12-11T16:59:04.822Z,8.60
2018-12-11T17:01:36.937Z,17.43
2018-12-11T17:04:09.801Z,10.37
2018-12-11T17:06:42.188Z,14.57
2018-12-11T17:09:15.327Z,11.33
2018-12-11T17:11:48.094Z,13.63
2018-12-11T17:14:19.919Z,15.83
2018-12-11T17:16:54.773Z,13.63
2018-12-11T17:19:27.472Z,13.50
2018-12-11T17:22:00.554Z,12.27
2018-12-11T17:24:33.524Z,15.77
2018-12-11T17:27:06.704Z,13.73
2018-12-11T17:29:39.741Z,13.77
2018-12-11T17:32:12.673Z,12.10
2018-12-11T17:34:45.606Z,11.90
2018-12-11T17:37:18.740Z,9.43
2018-12-11T17:39:49.564Z,19.00
2018-12-11T17:44:51.304Z,12.40
2018-12-11T17:47:24.222Z,11.17
2018-12-11T17:49:58.593Z,13.70
2018-12-11T17:52:29.688Z,13.67
2018-12-11T17:55:02.199Z,10.67
2018-12-11T17:57:35.513Z,13.90
2018-12-11T18:00:09.728Z,9.63
2018-12-11T18:02:43.778Z,12.40
2018-12-11T18:05:17.387Z,18.83
2018-12-11T18:07:50.508Z,15.43
2018-12-11T18:10:24.479Z,13.00
2018-12-11T18:12:55.840Z,16.37
2018-12-11T18:15:29.028Z,12.57
2018-12-11T18:18:02.244Z,12.70
2018-12-11T18:20:35.360Z,11.33
2018-12-11T18:23:08.349Z,9.70
2018-12-11T18:25:41.222Z,10.23
2018-12-11T18:28:16.246Z,13.13
2018-12-11T18:30:47.045Z,14.90
2018-12-11T18:33:18.892Z,9.23
2018-12-11T18:35:51.496Z,12.30
2018-12-11T18:38:22.630Z,15.13
2018-12-11T18:40:55.155Z,11.93
2018-12-11T18:45:57.131Z,12.30
2018-12-11T18:48:30.309Z,14.27
2018-12-11T18:51:03.281Z,13.80
2018-12-11T18:53:36.191Z,11.37
2018-12-11T18:56:12.108Z,12.40
2018-12-11T18:58:44.964Z,11.07
2018-12-11T19:01:15.965Z,13.10
2018-12-11T19:03:49.454Z,13.43
2018-12-11T19:06:22.156Z,11.97
2018-12-11T19:08:55.176Z,21.30
2018-12-11T19:11:27.941Z,15.20
2018-12-11T19:14:01.328Z,12.50
2018-12-11T19:16:32.259Z,15.33
2018-12-11T19:19:05.532Z,15.03
2018-12-11T19:21:39.139Z,9.97
2018-12-11T19:24:18.329Z,15.47
2018-12-11T19:26:49.717Z,13.20
2018-12-11T19:29:21.757Z,17.30
2018-12-11T19:31:55.665Z,13.43
2018-12-11T19:34:28.300Z,16.40
2018-12-11T19:37:06.278Z,16.20
2018-12-11T19:39:39.447Z,16.10
2018-12-11T19:42:12.303Z,20.07
2018-12-11T19:44:45.557Z,16.60
2018-12-11T19:47:18.439Z,15.27
2018-12-11T19:49:51.655Z,16.43
2018-12-11T19:52:24.597Z,16.60
2018-12-11T19:54:57.937Z,20.03
2018-12-11T19:57:31.725Z,15.07
2018-12-11T20:00:06.324Z,21.90
2018-12-11T20:02:37.199Z,19.77
2018-12-11T20:05:08.612Z,18.93
2018-12-11T20:07:39.500Z,17.37
2018-12-11T20:10:15.975Z,18.80
2018-12-11T20:12:48.821Z,15.60
2018-12-11T20:15:22.408Z,17.57
2018-12-11T20:17:54.772Z,24.43
2018-12-11T20:20:31.055Z,21.30
2018-12-11T20:23:03.723Z,19.07
2018-12-11T20:25:35.320Z,19.40
2018-12-11T20:28:08.100Z,20.83
2018-12-11T20:30:40.759Z,15.53
2018-12-11T20:33:15.623Z,16.40
2018-12-11T20:35:48.460Z,19.83
2018-12-11T20:38:21.045Z,17.40
2018-12-11T20:40:54.033Z,17.33
2018-12-11T20:43:27.228Z,23.23
2018-12-11T20:48:27.385Z,19.57
2018-12-11T20:51:00.184Z,19.27
2018-12-11T20:53:33.481Z,22.87
2018-12-11T20:56:04.736Z,20.50
2018-12-11T20:58:37.748Z,17.97
2018-12-11T21:01:10.457Z,18.43
2018-12-11T21:03:43.448Z,15.73
2018-12-11T21:06:16.540Z,21.63
2018-12-11T21:08:49.793Z,18.37
2018-12-11T21:11:20.667Z,16.10
2018-12-11T21:13:53.841Z,21.93
2018-12-11T21:16:25.387Z,18.57
2018-12-11T21:18:58.254Z,21.63
2018-12-11T21:21:31.206Z,22.37
2018-12-11T21:24:04.506Z,20.23
2018-12-11T21:26:36.092Z,17.20
2018-12-11T21:29:09.588Z,21.87
2018-12-11T21:31:42.468Z,20.97
2018-12-11T21:34:15.505Z,24.43
2018-12-11T21:36:48.387Z,23.40
2018-12-11T21:39:20.734Z,22.97
2018-12-11T21:41:53.844Z,22.17
2018-12-11T21:44:26.636Z,22.53
2018-12-11T21:46:56.738Z,21.50
2018-12-11T21:49:30.021Z,21.33
2018-12-11T21:52:03.166Z,26.17
2018-12-11T21:54:35.696Z,26.50
2018-12-11T21:57:07.798Z,23.13
2018-12-11T21:59:39.903Z,22.63
2018-12-11T22:02:12.653Z,25.63
2018-12-11T22:04:45.120Z,27.37
2018-12-11T22:07:16.020Z,27.30
2018-12-11T22:09:49.901Z,31.83
2018-12-11T22:12:22.968Z,27.90
2018-12-11T22:14:55.449Z,27.20
2018-12-11T22:17:26.357Z,30.63
2018-12-11T22:19:59.091Z,32.33
2018-12-11T22:22:31.077Z,29.30
2018-12-11T22:25:01.328Z,24.60
2018-12-11T22:27:34.411Z,29.37
2018-12-11T22:30:05.689Z,26.90
2018-12-11T22:32:38.232Z,27.27
2018-12-11T22:35:10.365Z,26.23
2018-12-11T22:37:42.364Z,33.83
2018-12-11T22:40:14.519Z,30.83
2018-12-11T22:42:46.906Z,30.13
2018-12-11T22:45:17.556Z,31.83
2018-12-11T22:47:49.688Z,32.37
2018-12-11T22:50:21.751Z,33.83
2018-12-11T22:52:53.941Z,32.00
2018-12-11T22:55:25.981Z,27.73
2018-12-11T22:57:57.865Z,34.83
2018-12-11T23:00:30.024Z,40.33
2018-12-11T23:03:02.167Z,38.43
2018-12-11T23:05:34.362Z,35.03
2018-12-11T23:08:06.410Z,34.67
2018-12-11T23:10:38.772Z,37.90
2018-12-11T23:13:11.997Z,35.60
2018-12-11T23:15:42.632Z,31.37
2018-12-11T23:18:14.610Z,32.77
2018-12-11T23:20:46.587Z,37.67
2018-12-11T23:23:18.723Z,36.90
2018-12-11T23:25:50.918Z,32.50
2018-12-11T23:28:23.248Z,27.80
2018-12-11T23:30:56.172Z,29.50
2018-12-11T23:33:29.208Z,28.90
2018-12-11T23:36:01.831Z,29.23
2018-12-11T23:38:34.578Z,31.13
2018-12-11T23:41:07.712Z,29.90
2018-12-11T23:43:40.685Z,29.23
2018-12-11T23:46:11.467Z,27.53
2018-12-11T23:48:43.432Z,31.17
2018-12-11T23:51:15.512Z,27.43
2018-12-11T23:53:48.377Z,24.33
2018-12-11T23:56:19.143Z,28.00
2018-12-11T23:58:50.012Z,27.50
